Time;durP1;ratioP1;P1;durP2;ratioP2;P2;SDS_P1;SDS_P2;PMS_P1;PMS_P2;Temp;Humidity;BMP_temperature;BMP_pressure;BME280_temperature;BME280_humidity;BME280_pressure;Samples;Min_cycle;Max_cycle;Signal;HPM_P1;HPM_P2
2023/07/16 00:01:32;;;;;;;2.08;1.42;;;24.50;60.90;24.60;99917.00;;;;4968315;28;109699;-65
2023/07/16 00:03:57;;;;;;;1.75;1.40;;;24.50;61.90;24.60;99931.00;;;;4966562;28;108485;-66
2023/07/16 00:06:23;;;;;;;1.85;1.65;;;24.40;62.30;24.50;99935.00;;;;4967231;28;116543;-65
2023/07/16 00:08:48;;;;;;;1.88;1.35;;;24.30;62.20;24.50;99937.00;;;;4963728;28;116341;-66
2023/07/16 00:11:14;;;;;;;1.83;1.08;;;24.30;62.40;24.40;99954.00;;;;4972401;28;109974;-66
2023/07/16 00:13:45;;;;;;;1.05;0.95;;;24.20;62.70;24.40;99978.00;;;;4968782;28;97767;-66
2023/07/16 00:16:12;;;;;;;1.50;1.40;;;24.20;63.20;24.30;99989.00;;;;4968795;28;89267;-66
2023/07/16 00:18:38;;;;;;;1.52;1.10;;;24.10;64.30;24.20;100022.00;;;;4971817;28;109825;-65
2023/07/16 00:21:03;;;;;;;2.03;1.45;;;24.10;65.20;24.20;100040.00;;;;4970729;28;110716;-67
2023/07/16 00:23:29;;;;;;;2.28;1.17;;;24.00;65.60;24.20;100060.00;;;;4969311;28;106623;-66
2023/07/16 00:25:55;;;;;;;4.47;1.15;;;24.00;66.90;24.10;100059.00;;;;4971603;28;117452;-65
2023/07/16 00:28:20;;;;;;;1.63;1.23;;;24.00;67.50;24.10;100092.00;;;;4968261;28;117268;-65
2023/07/16 00:30:46;;;;;;;5.15;1.63;;;23.90;69.00;24.10;100136.00;;;;4968409;28;110423;-66
2023/07/16 00:33:11;;;;;;;5.57;1.90;;;23.80;70.60;24.00;100185.00;;;;4968493;28;108562;-65
2023/07/16 00:35:37;;;;;;;3.28;1.00;;;23.80;72.20;24.00;100220.00;;;;4966103;28;117766;-66
2023/07/16 00:38:03;;;;;;;1.88;1.23;;;23.80;74.30;23.90;100205.00;;;;4965195;28;116791;-66
2023/07/16 00:40:28;;;;;;;4.57;1.67;;;23.70;75.90;23.90;100216.00;;;;4967832;28;89779;-65
2023/07/16 00:42:54;;;;;;;2.15;1.33;;;23.70;77.40;23.90;100211.00;;;;4969015;28;107061;-66
2023/07/16 00:45:20;;;;;;;2.53;1.10;;;23.70;78.50;23.90;100195.00;;;;4969676;28;117782;-66
2023/07/16 00:47:46;;;;;;;2.88;1.30;;;23.70;79.50;24.00;100190.00;;;;4967216;28;117494;-65
2023/07/16 00:50:12;;;;;;;1.38;1.00;;;23.70;79.70;24.00;100196.00;;;;4969808;28;100423;-66
2023/07/16 00:52:38;;;;;;;0.75;0.75;;;23.80;80.50;24.10;100192.00;;;;4972275;28;87905;-65
2023/07/16 00:55:06;;;;;;;1.90;0.82;;;23.80;80.70;24.10;100217.00;;;;4967718;28;88909;-65
2023/07/16 00:57:33;;;;;;;1.98;1.08;;;23.80;80.60;24.20;100227.00;;;;4969518;28;106309;-66
2023/07/16 00:59:58;;;;;;;2.80;1.65;;;23.90;81.20;24.20;100214.00;;;;4967708;28;87295;-66
2023/07/16 01:02:24;;;;;;;1.48;1.20;;;24.00;81.20;24.30;100198.00;;;;4968202;28;106321;-65
2023/07/16 01:04:50;;;;;;;0.88;0.73;;;24.00;81.10;24.30;100232.00;;;;4964635;28;117711;-66
2023/07/16 01:07:17;;;;;;;0.93;0.90;;;24.00;81.40;24.40;100233.00;;;;4966922;28;116782;-65
2023/07/16 01:09:45;;;;;;;4.43;1.23;;;24.10;81.60;24.40;100227.00;;;;4968006;28;88132;-67
2023/07/16 01:12:12;;;;;;;1.10;1.00;;;24.10;81.60;24.40;100234.00;;;;4965084;28;109012;-67
2023/07/16 01:14:41;;;;;;;0.93;0.80;;;24.10;81.60;24.40;100217.00;;;;4980310;27;116553;-65
2023/07/16 01:17:07;;;;;;;0.70;0.70;;;24.10;82.00;24.40;100224.00;;;;4968955;28;118551;-65
2023/07/16 01:19:34;;;;;;;2.47;1.00;;;24.10;81.90;24.40;100235.00;;;;4968549;28;98735;-66
2023/07/16 01:22:15;;;;;;;0.68;0.63;;;24.10;82.30;24.30;100234.00;;;;4966739;28;109113;-67
2023/07/16 01:25:23;;;;;;;1.27;1.00;;;24.10;82.30;24.20;100235.00;;;;4969319;28;103345;-64
2023/07/16 01:28:05;;;;;;;0.82;0.73;;;24.10;82.90;24.20;100238.00;;;;4971284;28;109010;-65
2023/07/16 01:30:31;;;;;;;0.77;0.52;;;24.00;83.40;24.20;100231.00;;;;4949549;28;87690;-64
2023/07/16 01:32:57;;;;;;;1.42;0.82;;;24.00;83.90;24.20;100234.00;;;;4963684;28;108829;-65
2023/07/16 01:35:24;;;;;;;0.80;0.70;;;24.00;83.90;24.20;100226.00;;;;4967445;28;94918;-65
2023/07/16 01:37:55;;;;;;;1.85;1.48;;;23.90;84.30;24.10;100227.00;;;;4961460;28;117503;-65
2023/07/16 01:40:21;;;;;;;0.57;0.57;;;23.90;84.90;24.10;100222.00;;;;4967824;28;110516;-66
2023/07/16 01:42:47;;;;;;;2.13;1.02;;;23.90;84.90;24.10;100219.00;;;;4966455;28;109237;-65
2023/07/16 01:45:12;;;;;;;0.73;0.68;;;23.80;85.20;24.00;100224.00;;;;4968892;28;117596;-65
2023/07/16 01:48:07;;;;;;;2.20;0.77;;;23.80;85.20;24.00;100237.00;;;;4965401;28;89262;-65
2023/07/16 01:50:33;;;;;;;0.77;0.73;;;23.80;85.40;24.00;100243.00;;;;4963463;28;100100;-67
2023/07/16 01:52:58;;;;;;;0.95;0.55;;;23.80;86.10;24.00;100223.00;;;;4963622;28;88185;-67
2023/07/16 01:55:24;;;;;;;1.95;1.00;;;23.70;86.10;23.90;100211.00;;;;4968525;28;117727;-65
2023/07/16 01:57:50;;;;;;;0.77;0.77;;;23.70;86.30;23.90;100213.00;;;;4970100;28;116883;-66
2023/07/16 02:00:15;;;;;;;1.75;0.45;;;23.70;86.30;23.90;100203.00;;;;4969069;28;109736;-65
2023/07/16 02:02:41;;;;;;;1.02;0.95;;;23.70;86.30;23.90;100187.00;;;;4970699;28;87803;-66
2023/07/16 02:05:07;;;;;;;0.57;0.57;;;23.70;86.50;23.90;100163.00;;;;4962903;28;117307;-66
2023/07/16 02:07:32;;;;;;;0.63;0.63;;;23.60;86.30;23.80;100155.00;;;;4966010;28;111249;-67
2023/07/16 02:09:58;;;;;;;0.32;0.32;;;23.60;87.20;23.70;100137.00;;;;4966488;28;109565;-66
2023/07/16 02:12:24;;;;;;;0.35;0.30;;;23.60;87.80;23.60;100165.00;;;;4968473;28;108924;-66
2023/07/16 02:14:49;;;;;;;2.30;0.75;;;23.50;88.60;23.40;100179.00;;;;4972899;28;116168;-66
2023/07/16 02:17:15;;;;;;;1.67;1.00;;;23.30;89.80;23.30;100185.00;;;;4964780;28;108799;-65
2023/07/16 02:19:41;;;;;;;0.40;0.30;;;23.20;90.20;23.20;100199.00;;;;4967491;28;110222;-66
2023/07/16 02:22:08;;;;;;;1.00;0.60;;;23.00;90.40;23.10;100205.00;;;;4963659;28;108468;-66
2023/07/16 02:24:33;;;;;;;0.70;0.70;;;23.00;91.00;23.00;100203.00;;;;4966478;28;117760;-66
2023/07/16 02:26:59;;;;;;;1.58;0.95;;;22.90;91.50;22.80;100210.00;;;;4963548;28;116651;-66
2023/07/16 02:29:24;;;;;;;0.57;0.57;;;22.80;91.90;22.70;100206.00;;;;4967601;28;108485;-65
2023/07/16 02:31:50;;;;;;;0.95;0.70;;;22.60;92.50;22.50;100210.00;;;;4969091;28;108083;-65
2023/07/16 02:34:16;;;;;;;0.30;0.30;;;22.40;93.00;22.40;100199.00;;;;4967945;28;117396;-65
2023/07/16 02:36:41;;;;;;;1.60;0.52;;;22.30;93.60;22.30;100216.00;;;;4974995;28;87935;-65
2023/07/16 02:39:07;;;;;;;1.10;0.55;;;22.20;94.20;22.20;100241.00;;;;4967179;28;109784;-65
2023/07/16 02:41:33;;;;;;;1.02;0.75;;;22.10;95.10;22.00;100225.00;;;;4972068;28;106909;-68
2023/07/16 02:44:01;;;;;;;2.05;0.52;;;21.90;96.00;21.70;100212.00;;;;4965259;28;117405;-67
2023/07/16 02:46:27;;;;;;;0.32;0.32;;;21.70;96.50;21.50;100198.00;;;;4970446;28;88950;-69
2023/07/16 02:48:53;;;;;;;4.47;0.45;;;21.50;96.90;21.30;100189.00;;;;4973100;28;87849;-67
2023/07/16 02:51:18;;;;;;;0.70;0.28;;;21.30;97.80;21.20;100187.00;;;;4968961;28;109079;-69
2023/07/16 02:53:44;;;;;;;0.50;0.50;;;21.20;98.30;21.10;100174.00;;;;4974418;28;115533;-68
2023/07/16 02:56:09;;;;;;;0.40;0.30;;;21.00;98.80;21.00;100167.00;;;;4970154;28;116680;-69
2023/07/16 02:58:35;;;;;;;0.93;0.63;;;20.90;99.60;20.90;100192.00;;;;4968487;28;110327;-69
2023/07/16 03:01:01;;;;;;;1.23;0.77;;;20.80;99.90;20.70;100198.00;;;;4968960;28;108244;-69
2023/07/16 03:03:26;;;;;;;0.60;0.60;;;20.70;99.90;20.60;100209.00;;;;4968897;28;116185;-69
2023/07/16 03:05:52;;;;;;;1.08;0.60;;;20.50;99.90;20.50;100219.00;;;;4967844;28;104251;-68
2023/07/16 03:08:18;;;;;;;0.98;0.80;;;20.40;99.90;20.40;100234.00;;;;4971659;28;110344;-69
2023/07/16 03:10:43;;;;;;;3.53;0.70;;;20.30;99.90;20.30;100241.00;;;;4969138;28;106702;-65
2023/07/16 03:13:09;;;;;;;3.88;0.80;;;20.20;99.90;20.10;100269.00;;;;4969400;28;118808;-65
2023/07/16 03:15:35;;;;;;;0.73;0.73;;;20.10;99.90;20.00;100274.00;;;;4972802;28;116961;-66
2023/07/16 03:18:00;;;;;;;0.93;0.93;;;19.90;99.90;19.90;100265.00;;;;4970871;28;109871;-65
2023/07/16 03:20:26;;;;;;;0.77;0.63;;;19.90;99.90;19.90;100272.00;;;;4973698;28;109957;-69
2023/07/16 03:22:52;;;;;;;0.77;0.77;;;19.80;99.90;19.80;100279.00;;;;4969037;28;117253;-70
2023/07/16 03:25:18;;;;;;;0.93;0.73;;;19.70;99.90;19.70;100262.00;;;;4969068;28;116756;-68
2023/07/16 03:27:44;;;;;;;1.05;0.73;;;19.60;99.90;19.70;100288.00;;;;4966977;28;102014;-68
2023/07/16 03:30:10;;;;;;;4.20;0.63;;;19.60;99.90;19.70;100281.00;;;;4972126;28;109161;-68
2023/07/16 03:32:44;;;;;;;0.85;0.85;;;19.60;99.90;19.70;100280.00;;;;4966215;28;108956;-69
2023/07/16 03:35:10;;;;;;;0.70;0.60;;;19.50;99.90;19.70;100288.00;;;;4966828;28;117995;-68
2023/07/16 03:37:36;;;;;;;1.50;0.90;;;19.50;99.90;19.70;100304.00;;;;4968431;28;101059;-68
2023/07/16 03:40:16;;;;;;;3.22;1.10;;;19.50;99.90;19.60;100302.00;;;;4968789;28;107347;-67
2023/07/16 03:42:42;;;;;;;1.63;0.70;;;19.50;99.90;19.60;100304.00;;;;4967724;28;88410;-68
2023/07/16 03:45:09;;;;;;;0.70;0.57;;;19.50;99.90;19.60;100311.00;;;;4970111;28;110991;-67
2023/07/16 03:47:35;;;;;;;0.77;0.60;;;19.50;99.90;19.60;100320.00;;;;4969750;28;87704;-66
2023/07/16 03:50:01;;;;;;;1.33;0.85;;;19.40;99.90;19.50;100322.00;;;;4967790;28;107721;-68
2023/07/16 03:52:28;;;;;;;0.40;0.40;;;19.40;99.90;19.50;100322.00;;;;4972478;28;87085;-68
2023/07/16 03:54:54;;;;;;;1.08;0.70;;;19.40;99.90;19.50;100323.00;;;;4967264;28;88108;-69
2023/07/16 03:57:20;;;;;;;1.67;0.60;;;19.30;99.90;19.40;100300.00;;;;4971592;28;87822;-68
2023/07/16 03:59:46;;;;;;;0.45;0.45;;;19.30;99.90;19.40;100314.00;;;;4969818;28;107980;-67
2023/07/16 04:02:12;;;;;;;0.40;0.40;;;19.30;99.90;19.40;100317.00;;;;4968111;28;117632;-69
2023/07/16 04:04:43;;;;;;;0.63;0.40;;;19.20;99.90;19.30;100317.00;;;;4968774;28;116292;-68
2023/07/16 04:07:09;;;;;;;0.63;0.45;;;19.20;99.90;19.30;100309.00;;;;4971005;28;110088;-69
2023/07/16 04:09:38;;;;;;;0.90;0.90;;;19.20;99.90;19.30;100303.00;;;;4968114;28;108253;-68
2023/07/16 04:12:05;;;;;;;0.90;0.60;;;19.10;99.90;19.20;100290.00;;;;4985963;27;88351;-70
2023/07/16 04:14:34;;;;;;;1.15;0.75;;;19.10;99.90;19.20;100280.00;;;;4970830;28;88735;-68
2023/07/16 04:17:00;;;;;;;0.55;0.50;;;19.10;99.90;19.20;100270.00;;;;4968078;28;110869;-68
2023/07/16 04:19:25;;;;;;;0.65;0.32;;;19.00;99.90;19.20;100266.00;;;;4966955;28;108922;-66
2023/07/16 04:21:51;;;;;;;0.55;0.55;;;19.10;99.90;19.20;100266.00;;;;4969320;28;117363;-68
2023/07/16 04:24:17;;;;;;;0.85;0.60;;;19.00;99.90;19.20;100250.00;;;;4966255;28;117316;-68
2023/07/16 04:26:42;;;;;;;0.90;0.70;;;19.00;99.90;19.20;100239.00;;;;4968451;28;110464;-67
2023/07/16 04:29:08;;;;;;;1.25;0.50;;;19.00;99.90;19.20;100238.00;;;;4965466;28;108163;-67
2023/07/16 04:31:34;;;;;;;0.63;0.55;;;19.00;99.90;19.20;100222.00;;;;4965181;28;117990;-67
2023/07/16 04:33:59;;;;;;;0.90;0.45;;;19.10;99.90;19.20;100218.00;;;;4969929;28;88719;-67
2023/07/16 04:36:25;;;;;;;0.60;0.50;;;19.10;99.90;19.20;100209.00;;;;4970134;28;110721;-67
2023/07/16 04:38:51;;;;;;;0.80;0.68;;;19.10;99.90;19.30;100185.00;;;;4962020;28;108112;-66
2023/07/16 04:41:17;;;;;;;0.80;0.40;;;19.10;99.90;19.30;100184.00;;;;4933003;28;118206;-66
2023/07/16 04:43:42;;;;;;;0.50;0.50;;;19.20;99.90;19.30;100198.00;;;;4946813;28;88312;-66
2023/07/16 04:46:16;;;;;;;0.32;0.30;;;19.20;99.90;19.30;100199.00;;;;4948447;28;93243;-66
2023/07/16 04:48:42;;;;;;;0.95;0.55;;;19.20;99.90;19.40;100195.00;;;;4947950;28;88968;-67
2023/07/16 04:51:07;;;;;;;0.73;0.73;;;19.20;99.90;19.40;100200.00;;;;4947418;28;107946;-66
2023/07/16 04:53:33;;;;;;;0.52;0.43;;;19.20;99.90;19.40;100208.00;;;;4946995;28;118125;-67
2023/07/16 04:55:59;;;;;;;0.77;0.70;;;19.30;99.90;19.50;100209.00;;;;4951079;28;110552;-66
2023/07/16 04:58:24;;;;;;;1.40;0.75;;;19.30;99.90;19.50;100202.00;;;;4944737;28;108039;-68
2023/07/16 05:00:51;;;;;;;1.08;0.88;;;19.30;99.90;19.60;100193.00;;;;4946137;28;116681;-66
2023/07/16 05:03:16;;;;;;;0.70;0.60;;;19.40;99.90;19.60;100180.00;;;;4944352;28;88474;-67
2023/07/16 05:05:42;;;;;;;1.17;0.93;;;19.40;99.90;19.60;100178.00;;;;4949897;28;111402;-66
2023/07/16 05:08:08;;;;;;;0.70;0.52;;;19.50;99.90;19.70;100181.00;;;;4947835;28;109805;-66
2023/07/16 05:10:34;;;;;;;0.73;0.63;;;19.50;99.90;19.70;100184.00;;;;4949331;28;116506;-68
2023/07/16 05:12:59;;;;;;;1.20;0.82;;;19.50;99.90;19.80;100191.00;;;;4947869;28;111632;-69
2023/07/16 05:15:25;;;;;;;1.10;0.80;;;19.60;99.90;19.80;100202.00;;;;4950542;28;109924;-67
2023/07/16 05:17:51;;;;;;;0.60;0.60;;;19.60;99.90;19.90;100222.00;;;;4946105;28;107085;-66
2023/07/16 05:20:16;;;;;;;0.73;0.73;;;19.70;99.90;19.90;100236.00;;;;4953897;28;107826;-67
2023/07/16 05:22:42;;;;;;;0.50;0.50;;;19.70;99.90;20.00;100242.00;;;;4948647;28;96855;-67
2023/07/16 05:25:08;;;;;;;2.08;1.10;;;19.90;99.90;20.10;100258.00;;;;4949368;28;109302;-67
2023/07/16 05:27:35;;;;;;;1.40;1.05;;;19.90;99.90;20.10;100260.00;;;;4949853;28;109834;-67
2023/07/16 05:30:01;;;;;;;2.97;0.95;;;19.90;99.90;20.20;100268.00;;;;4946655;28;88695;-68
2023/07/16 05:32:26;;;;;;;1.20;0.52;;;20.00;99.90;20.20;100274.00;;;;4945065;28;102615;-68
2023/07/16 05:34:52;;;;;;;0.60;0.40;;;20.00;99.90;20.30;100283.00;;;;4950831;28;108839;-67
2023/07/16 05:37:18;;;;;;;0.68;0.68;;;20.10;99.90;20.30;100277.00;;;;4945596;28;108934;-66
2023/07/16 05:39:43;;;;;;;0.80;0.60;;;20.10;99.90;20.30;100284.00;;;;4941901;28;88798;-66
2023/07/16 05:42:09;;;;;;;0.73;0.68;;;20.20;99.90;20.40;100288.00;;;;4942913;28;118303;-65
2023/07/16 05:44:35;;;;;;;0.90;0.85;;;20.20;99.90;20.40;100306.00;;;;4945576;28;108909;-65
2023/07/16 05:47:01;;;;;;;1.00;0.57;;;20.30;99.90;20.50;100366.00;;;;4944117;28;107353;-65
2023/07/16 05:49:27;;;;;;;0.93;0.82;;;20.30;99.90;20.50;100357.00;;;;4943654;28;116047;-66
2023/07/16 05:51:54;;;;;;;0.70;0.70;;;20.30;99.90;20.60;100353.00;;;;4944872;28;118575;-66
2023/07/16 05:54:19;;;;;;;0.93;0.63;;;20.40;99.90;20.60;100370.00;;;;4945889;28;87548;-66
2023/07/16 05:56:45;;;;;;;3.08;0.95;;;20.40;99.90;20.60;100362.00;;;;4942864;28;110017;-66
2023/07/16 05:59:11;;;;;;;2.15;1.08;;;20.40;99.90;20.60;100338.00;;;;4943146;28;88061;-66
2023/07/16 06:01:36;;;;;;;0.63;0.63;;;20.40;99.90;20.60;100333.00;;;;4944969;28;117199;-66
2023/07/16 06:04:02;;;;;;;0.88;0.52;;;20.50;99.90;20.70;100340.00;;;;4945155;28;88007;-65
2023/07/16 06:06:30;;;;;;;1.08;0.60;;;20.50;99.90;20.70;100352.00;;;;4948420;28;87776;-65
2023/07/16 06:08:56;;;;;;;1.27;0.80;;;20.50;99.90;20.70;100365.00;;;;4949837;28;89000;-65
2023/07/16 06:11:21;;;;;;;0.68;0.60;;;20.50;99.90;20.70;100359.00;;;;4945876;28;116199;-66
2023/07/16 06:13:54;;;;;;;0.40;0.40;;;20.50;99.90;20.70;100369.00;;;;4946264;28;105027;-67
2023/07/16 06:16:20;;;;;;;1.75;0.68;;;20.60;99.90;20.80;100371.00;;;;4973764;28;89230;-65
2023/07/16 06:18:46;;;;;;;1.35;0.70;;;20.60;99.90;20.80;100368.00;;;;4944978;28;109690;-65
2023/07/16 06:21:11;;;;;;;3.13;0.88;;;20.60;99.90;20.80;100366.00;;;;4948011;28;117435;-64
2023/07/16 06:23:40;;;;;;;0.55;0.55;;;20.60;99.90;20.90;100375.00;;;;4946308;28;109331;-65
2023/07/16 06:26:05;;;;;;;1.25;0.90;;;20.70;99.90;21.10;100379.00;;;;4946620;28;100747;-65
2023/07/16 06:28:32;;;;;;;1.35;1.25;;;20.90;99.90;21.40;100381.00;;;;4946473;28;117315;-65
2023/07/16 06:30:58;;;;;;;1.88;1.00;;;21.10;99.90;21.70;100379.00;;;;4946282;28;112338;-65
2023/07/16 06:33:25;;;;;;;1.75;1.05;;;21.40;99.90;22.00;100385.00;;;;4946904;28;110986;-65
2023/07/16 06:35:51;;;;;;;1.25;1.08;;;21.70;99.90;22.40;100377.00;;;;4947109;28;88593;-66
2023/07/16 06:38:18;;;;;;;1.23;0.80;;;22.00;99.90;22.70;100377.00;;;;4944491;28;117917;-67
2023/07/16 06:40:52;;;;;;;0.98;0.90;;;22.30;99.90;23.00;100374.00;;;;4945792;28;115511;-68
2023/07/16 06:43:18;;;;;;;0.73;0.73;;;22.70;99.90;23.20;100378.00;;;;4948582;28;87247;-66
2023/07/16 06:45:43;;;;;;;0.60;0.60;;;22.90;99.90;23.30;100385.00;;;;4947594;28;87958;-67
2023/07/16 06:48:09;;;;;;;0.93;0.73;;;23.00;99.90;23.30;100384.00;;;;4945980;28;87990;-67
2023/07/16 06:50:35;;;;;;;0.63;0.50;;;23.10;99.90;23.40;100390.00;;;;4947795;28;88712;-67
2023/07/16 06:53:00;;;;;;;8.30;0.75;;;23.20;99.90;23.40;100381.00;;;;4941624;28;109293;-66
2023/07/16 06:55:26;;;;;;;1.17;0.90;;;23.20;99.90;23.40;100398.00;;;;4944743;28;108337;-66
2023/07/16 06:57:52;;;;;;;3.22;0.50;;;23.20;99.90;23.60;100397.00;;;;4947197;28;89046;-66
2023/07/16 07:00:18;;;;;;;0.70;0.70;;;23.30;99.90;23.70;100396.00;;;;4946571;28;116700;-65
2023/07/16 07:02:43;;;;;;;1.77;0.70;;;23.40;99.90;23.80;100391.00;;;;4945549;28;101010;-67
2023/07/16 07:05:09;;;;;;;0.80;0.57;;;23.60;99.90;24.00;100386.00;;;;4948531;28;109006;-66
2023/07/16 07:07:35;;;;;;;0.85;0.70;;;23.70;99.90;24.20;100383.00;;;;4945426;28;87707;-65
2023/07/16 07:10:01;;;;;;;4.80;0.50;;;23.90;99.90;24.20;100390.00;;;;4948038;28;106564;-65
2023/07/16 07:12:27;;;;;;;1.65;0.93;;;24.00;99.90;24.30;100390.00;;;;4946732;28;102864;-65
2023/07/16 07:14:52;;;;;;;0.57;0.32;;;24.10;99.90;24.40;100390.00;;;;4945061;28;98256;-66
2023/07/16 07:17:18;;;;;;;0.93;0.68;;;24.20;99.90;24.60;100401.00;;;;4945200;28;117629;-66
2023/07/16 07:19:44;;;;;;;2.30;0.93;;;24.30;99.90;24.90;100388.00;;;;4948811;28;117767;-66
2023/07/16 07:22:10;;;;;;;1.80;0.63;;;24.60;99.90;25.10;100382.00;;;;4946410;28;87966;-66
2023/07/16 07:24:35;;;;;;;0.43;0.43;;;24.80;99.90;25.30;100404.00;;;;4948081;28;89143;-67
2023/07/16 07:27:02;;;;;;;0.63;0.52;;;25.00;99.90;25.50;100398.00;;;;4944865;28;117741;-66
2023/07/16 07:29:27;;;;;;;0.98;0.63;;;25.20;99.90;25.70;100404.00;;;;4949306;28;88874;-66
2023/07/16 07:31:53;;;;;;;0.73;0.55;;;25.40;99.80;25.70;100399.00;;;;4942137;28;110062;-67
2023/07/16 07:34:19;;;;;;;0.40;0.35;;;25.50;99.10;25.80;100409.00;;;;4947025;28;94975;-66
2023/07/16 07:36:45;;;;;;;0.50;0.50;;;25.60;98.00;25.80;100412.00;;;;4946353;28;117612;-67
2023/07/16 07:39:10;;;;;;;0.60;0.60;;;25.60;97.10;25.90;100407.00;;;;4946742;28;110452;-66
2023/07/16 07:41:36;;;;;;;0.45;0.30;;;25.70;96.50;26.00;100415.00;;;;4948606;28;109883;-66
2023/07/16 07:44:02;;;;;;;1.20;0.77;;;25.80;96.00;26.10;100407.00;;;;4945785;28;109236;-66
2023/07/16 07:46:27;;;;;;;0.82;0.70;;;25.90;94.80;26.20;100405.00;;;;4947527;28;88335;-67
2023/07/16 07:48:54;;;;;;;0.73;0.63;;;25.90;94.20;26.30;100411.00;;;;4943849;28;116282;-67
2023/07/16 07:51:20;;;;;;;1.13;0.63;;;26.20;94.30;26.40;100409.00;;;;4948431;28;87915;-66
2023/07/16 07:53:46;;;;;;;0.70;0.70;;;26.20;93.20;26.50;100408.00;;;;4946638;28;88229;-66
2023/07/16 07:56:14;;;;;;;0.60;0.55;;;26.20;92.00;26.50;100401.00;;;;4948048;28;100433;-67
2023/07/16 07:58:40;;;;;;;0.50;0.50;;;26.30;91.30;26.60;100419.00;;;;4944545;28;108666;-66
2023/07/16 08:01:07;;;;;;;0.70;0.70;;;26.40;91.70;26.80;100419.00;;;;4947267;28;87871;-67
2023/07/16 08:03:34;;;;;;;1.08;0.77;;;26.50;90.80;26.90;100422.00;;;;4942228;28;88888;-66
2023/07/16 08:06:00;;;;;;;0.57;0.43;;;26.70;90.00;27.10;100431.00;;;;4945766;28;87836;-65
2023/07/16 08:08:34;;;;;;;0.50;0.50;;;26.80;86.60;27.00;100427.00;;;;4945366;28;119487;-66
2023/07/16 08:11:00;;;;;;;0.80;0.50;;;26.80;86.00;27.00;100432.00;;;;4949028;28;87986;-66
2023/07/16 08:13:26;;;;;;;1.13;0.60;;;26.80;86.20;27.10;100436.00;;;;4936526;28;93715;-66
2023/07/16 08:15:51;;;;;;;3.65;0.95;;;26.80;86.40;27.10;100450.00;;;;4945095;28;102820;-66
2023/07/16 08:18:17;;;;;;;2.25;0.80;;;26.90;85.40;27.20;100447.00;;;;4947698;28;117305;-67
2023/07/16 08:20:42;;;;;;;0.75;0.75;;;27.00;84.20;27.40;100446.00;;;;4949587;28;94362;-67
2023/07/16 08:23:08;;;;;;;0.40;0.40;;;27.10;83.40;27.50;100456.00;;;;4946995;28;108246;-66
2023/07/16 08:25:34;;;;;;;0.52;0.50;;;27.20;81.90;27.60;100454.00;;;;4947320;28;87875;-65
2023/07/16 08:28:02;;;;;;;1.05;0.60;;;27.30;81.00;27.80;100452.00;;;;4946250;28;88788;-65
2023/07/16 08:30:28;;;;;;;0.70;0.50;;;27.50;79.30;28.00;100460.00;;;;4944133;28;88352;-67
2023/07/16 08:32:53;;;;;;;0.80;0.55;;;27.70;76.10;28.20;100446.00;;;;4942715;28;108604;-66
2023/07/16 08:35:19;;;;;;;1.42;0.55;;;27.90;74.80;28.40;100452.00;;;;4947853;28;117224;-66
2023/07/16 08:37:45;;;;;;;3.03;0.45;;;28.10;71.30;28.30;100459.00;;;;4947464;28;89543;-65
2023/07/16 08:40:14;;;;;;;0.30;0.30;;;28.10;70.10;28.30;100450.00;;;;4948364;28;110420;-66
2023/07/16 08:42:44;;;;;;;2.65;1.23;;;28.10;69.60;28.10;100464.00;;;;4949590;28;97785;-66
2023/07/16 08:45:10;;;;;;;3.35;0.50;;;28.00;69.00;27.90;100469.00;;;;4944417;28;102961;-66
2023/07/16 08:47:37;;;;;;;1.17;0.60;;;27.80;67.90;27.70;100469.00;;;;4950357;28;87750;-65
2023/07/16 08:50:03;;;;;;;0.40;0.40;;;27.60;68.80;27.60;100463.00;;;;4946516;28;87734;-67
2023/07/16 08:52:29;;;;;;;1.08;0.50;;;27.50;69.70;27.70;100473.00;;;;4944514;28;96488;-65
2023/07/16 08:54:55;;;;;;;2.03;0.82;;;27.50;69.40;27.90;100461.00;;;;4943685;28;88317;-67
2023/07/16 08:57:21;;;;;;;0.85;0.45;;;27.60;68.30;28.10;100473.00;;;;4945305;28;116520;-66
2023/07/16 08:59:51;;;;;;;1.02;0.77;;;27.70;66.30;28.20;100457.00;;;;4944705;28;87913;-66
2023/07/16 09:02:19;;;;;;;0.63;0.60;;;27.90;63.20;28.20;100467.00;;;;4943853;28;107736;-67
2023/07/16 09:04:48;;;;;;;0.40;0.40;;;28.00;62.40;28.10;100464.00;;;;4943566;28;88586;-67
2023/07/16 09:07:14;;;;;;;0.40;0.40;;;27.90;61.50;28.00;100458.00;;;;4943845;28;88601;-65
2023/07/16 09:09:40;;;;;;;0.80;0.52;;;27.90;59.80;28.10;100464.00;;;;4945464;28;87413;-65
2023/07/16 09:12:06;;;;;;;0.65;0.40;;;27.80;60.20;28.20;100474.00;;;;4943298;28;108960;-66
2023/07/16 09:14:32;;;;;;;0.63;0.63;;;27.90;58.80;28.20;100469.00;;;;4944854;28;89349;-66
2023/07/16 09:16:57;;;;;;;2.20;0.70;;;27.90;58.60;28.20;100478.00;;;;4943207;28;118774;-67
2023/07/16 09:19:25;;;;;;;0.85;0.55;;;27.90;58.40;28.10;100476.00;;;;4943798;28;109128;-66
2023/07/16 09:21:52;;;;;;;0.60;0.30;;;27.90;57.10;28.20;100472.00;;;;4943401;28;108583;-66
2023/07/16 09:24:19;;;;;;;0.73;0.50;;;27.90;57.00;28.40;100482.00;;;;4942941;28;118749;-66
2023/07/16 09:26:53;;;;;;;2.38;0.32;;;28.00;57.00;28.50;100486.00;;;;4943987;28;108985;-66
2023/07/16 09:29:19;;;;;;;2.35;0.52;;;28.20;58.00;28.80;100489.00;;;;4941448;28;89002;-66
2023/07/16 09:32:00;;;;;;;1.52;0.93;;;28.40;57.50;28.90;100488.00;;;;4945507;28;89121;-67
2023/07/16 09:34:30;;;;;;;1.10;0.52;;;28.60;54.10;28.90;100494.00;;;;4943954;28;87151;-67
2023/07/16 09:37:00;;;;;;;0.68;0.68;;;28.60;55.30;29.10;100491.00;;;;4979703;28;88167;-67
2023/07/16 09:39:27;;;;;;;1.75;0.75;;;28.80;54.10;29.00;100480.00;;;;4941796;28;105212;-67
2023/07/16 09:41:53;;;;;;;1.80;0.52;;;28.80;51.70;28.70;100496.00;;;;4941560;28;89287;-66
2023/07/16 09:44:19;;;;;;;1.27;0.47;;;28.60;51.80;28.50;100502.00;;;;4929012;28;91659;-66
2023/07/16 09:46:46;;;;;;;4.55;0.57;;;28.30;52.60;28.40;100503.00;;;;4959445;28;117115;-67
2023/07/16 09:49:14;;;;;;;1.52;0.68;;;28.20;53.50;28.50;100507.00;;;;4964990;28;87981;-67
2023/07/16 09:51:42;;;;;;;0.88;0.55;;;28.20;54.40;28.80;100502.00;;;;4963997;28;89076;-67
2023/07/16 09:54:15;;;;;;;3.75;1.00;;;28.40;54.60;29.00;100503.00;;;;4964824;28;89334;-68
2023/07/16 09:56:49;;;;;;;0.93;0.68;;;28.60;54.50;29.30;100490.00;;;;4964983;27;87964;-67
2023/07/16 09:59:20;;;;;;;0.60;0.50;;;28.90;53.10;29.40;100499.00;;;;4960634;28;100073;-67
2023/07/16 10:01:45;;;;;;;1.95;0.52;;;29.00;52.00;29.40;100492.00;;;;4969904;28;88128;-67
2023/07/16 10:04:16;;;;;;;0.43;0.22;;;29.10;51.90;29.40;100503.00;;;;4967233;28;90315;-68
2023/07/16 10:06:58;;;;;;;0.32;0.30;;;29.10;50.50;29.40;100513.00;;;;4965071;28;107684;-69
2023/07/16 10:09:42;;;;;;;2.70;0.70;;;29.10;47.80;29.40;100505.00;;;;4963875;28;87844;-70
2023/07/16 10:12:15;;;;;;;1.00;0.55;;;29.10;48.40;29.60;100502.00;;;;4959319;28;99380;-69
2023/07/16 10:14:52;;;;;;;2.38;0.52;;;29.20;48.70;29.90;100514.00;;;;4976766;27;88999;-69
2023/07/16 10:17:23;;;;;;;1.48;0.55;;;29.40;48.60;30.00;100512.00;;;;4966417;28;88215;-70
2023/07/16 10:20:10;;;;;;;1.10;0.80;;;29.60;48.00;30.00;100513.00;;;;4965761;28;105503;-70
2023/07/16 10:22:41;;;;;;;3.13;1.02;;;29.60;47.80;30.00;100517.00;;;;4957957;28;88608;-70
2023/07/16 10:25:19;;;;;;;0.55;0.50;;;29.60;47.30;29.90;100504.00;;;;4964299;28;87967;-67
2023/07/16 10:27:47;;;;;;;2.45;0.43;;;29.50;47.60;29.90;100499.00;;;;4966386;28;117186;-68
2023/07/16 10:30:13;;;;;;;1.52;1.15;;;29.50;47.70;30.10;100506.00;;;;4960584;28;87824;-68
2023/07/16 10:32:39;;;;;;;1.20;0.60;;;29.60;48.00;30.20;100509.00;;;;4966512;28;93697;-68
2023/07/16 10:35:10;;;;;;;1.23;0.52;;;29.70;47.60;30.20;100501.00;;;;4968417;28;90294;-68
2023/07/16 10:37:37;;;;;;;0.90;0.65;;;29.80;47.00;30.20;100517.00;;;;4980369;27;88645;-67
2023/07/16 10:40:04;;;;;;;1.17;0.88;;;29.80;47.20;30.20;100511.00;;;;4964615;28;88075;-68
2023/07/16 10:42:31;;;;;;;1.75;0.47;;;29.80;47.70;30.30;100521.00;;;;4967254;28;87867;-69